Time;durP1;ratioP1;P1;durP2;ratioP2;P2;SDS_P1;SDS_P2;PMS_P1;PMS_P2;Temp;Humidity;BMP_temperature;BMP_pressure;BME280_temperature;BME280_humidity;BME280_pressure;Samples;Min_cycle;Max_cycle;Signal;HPM_P1;HPM_P2
2022/12/05 00:01:30;;;;;;;29.85;10.70;;;7.40;94.20;;;;;;5108971;28;20024;-55
2022/12/05 00:03:59;;;;;;;29.92;10.80;;;7.40;94.20;;;;;;5126621;28;20089;-55
2022/12/05 00:06:26;;;;;;;31.30;11.77;;;7.40;94.20;;;;;;5091917;28;20024;-54
2022/12/05 00:08:51;;;;;;;24.23;10.60;;;7.40;94.20;;;;;;5092307;28;20047;-55
2022/12/05 00:11:20;;;;;;;29.80;10.48;;;7.30;94.20;;;;;;5108326;28;20050;-54
2022/12/05 00:13:45;;;;;;;29.17;10.90;;;7.30;94.20;;;;;;5108404;28;20037;-55
2022/12/05 00:16:12;;;;;;;27.33;10.35;;;7.30;94.20;;;;;;5091344;28;20058;-55
2022/12/05 00:18:38;;;;;;;23.77;9.98;;;7.30;94.20;;;;;;5091333;28;20032;-55
2022/12/05 00:21:04;;;;;;;21.58;10.30;;;7.30;94.20;;;;;;5091264;28;20084;-54
2022/12/05 00:23:29;;;;;;;19.83;10.55;;;7.30;94.20;;;;;;5126492;28;20035;-55
2022/12/05 00:25:55;;;;;;;24.15;10.23;;;7.30;94.20;;;;;;5091151;28;20023;-55
2022/12/05 00:28:20;;;;;;;27.27;10.30;;;7.30;94.20;;;;;;5108168;28;20042;-54
2022/12/05 00:30:46;;;;;;;27.20;10.05;;;7.30;94.20;;;;;;5091393;28;20019;-55
2022/12/05 00:33:11;;;;;;;27.02;10.35;;;7.30;94.20;;;;;;5108121;28;20038;-55
2022/12/05 00:35:37;;;;;;;28.08;9.85;;;7.30;94.20;;;;;;5126420;28;20024;-54
2022/12/05 00:38:02;;;;;;;30.88;10.02;;;7.30;94.20;;;;;;5126487;28;20028;-54
2022/12/05 00:40:28;;;;;;;22.85;10.27;;;7.30;94.20;;;;;;5091158;28;20101;-54
2022/12/05 00:42:54;;;;;;;20.40;9.38;;;7.30;94.20;;;;;;5126269;28;20036;-54
2022/12/05 00:45:19;;;;;;;27.10;9.75;;;7.30;94.20;;;;;;5126368;28;20023;-55
2022/12/05 00:47:45;;;;;;;18.70;9.10;;;7.30;94.20;;;;;;5126107;28;20461;-55
2022/12/05 00:50:10;;;;;;;25.77;9.98;;;7.30;94.20;;;;;;5108472;28;20059;-55
2022/12/05 00:52:36;;;;;;;24.13;10.30;;;7.30;94.20;;;;;;5127132;28;20061;-54
2022/12/05 00:55:01;;;;;;;21.40;9.85;;;7.30;94.30;;;;;;5126068;28;20039;-55
2022/12/05 00:57:27;;;;;;;22.13;9.57;;;7.30;94.30;;;;;;5110308;28;20028;-55
2022/12/05 00:59:53;;;;;;;23.92;10.93;;;7.20;94.20;;;;;;5129239;28;20032;-55
2022/12/05 01:02:18;;;;;;;21.45;10.23;;;7.30;94.30;;;;;;5127108;28;20403;-54
2022/12/05 01:04:44;;;;;;;17.45;8.90;;;7.20;94.30;;;;;;5107648;28;20024;-54
2022/12/05 01:07:09;;;;;;;22.17;9.73;;;7.20;94.30;;;;;;5107576;28;20027;-54
2022/12/05 01:09:35;;;;;;;21.25;9.10;;;7.30;94.60;;;;;;5126017;28;20024;-54
2022/12/05 01:12:00;;;;;;;21.35;8.80;;;7.30;94.30;;;;;;5090529;28;20031;-55
2022/12/05 01:14:26;;;;;;;24.42;9.60;;;7.20;94.30;;;;;;5107539;28;20038;-54
2022/12/05 01:16:53;;;;;;;16.08;9.18;;;7.30;94.30;;;;;;5107274;28;20119;-55
2022/12/05 01:19:22;;;;;;;19.55;9.05;;;7.30;94.30;;;;;;5125660;28;20031;-54
2022/12/05 01:21:47;;;;;;;20.40;9.43;;;7.30;94.30;;;;;;5125073;28;20059;-55
2022/12/05 01:24:13;;;;;;;22.50;9.52;;;7.20;94.30;;;;;;5090453;28;20031;-55
2022/12/05 01:26:39;;;;;;;24.40;9.88;;;7.30;94.30;;;;;;5073700;28;20032;-55
2022/12/05 01:29:05;;;;;;;24.58;9.63;;;7.30;94.20;;;;;;5090657;28;20159;-54
2022/12/05 01:31:32;;;;;;;23.83;9.65;;;7.30;94.30;;;;;;5107268;28;20033;-54
2022/12/05 01:33:58;;;;;;;18.17;9.02;;;7.30;94.20;;;;;;5107113;28;20082;-54
2022/12/05 01:36:24;;;;;;;20.13;9.30;;;7.30;94.30;;;;;;5107067;28;20027;-55
2022/12/05 01:38:50;;;;;;;22.58;9.55;;;7.20;94.30;;;;;;5107090;28;20130;-55
2022/12/05 01:41:21;;;;;;;19.20;9.70;;;7.30;94.30;;;;;;5125365;28;20424;-55
2022/12/05 01:44:06;;;;;;;19.98;8.85;;;7.20;94.30;;;;;;5107054;28;20090;-54
2022/12/05 01:46:36;;;;;;;17.63;8.95;;;7.20;94.30;;;;;;5106809;28;20038;-54
2022/12/05 01:49:14;;;;;;;19.52;9.75;;;7.20;94.30;;;;;;5090387;28;20036;-55
2022/12/05 01:51:49;;;;;;;19.27;9.00;;;7.20;94.30;;;;;;5107045;28;20036;-55
2022/12/05 01:54:15;;;;;;;19.00;9.13;;;7.20;94.30;;;;;;5090486;28;20058;-54
2022/12/05 01:56:43;;;;;;;19.23;9.50;;;7.20;94.30;;;;;;5090320;28;20039;-54
2022/12/05 01:59:09;;;;;;;21.55;8.65;;;7.20;94.30;;;;;;5090222;28;20038;-55
2022/12/05 02:01:35;;;;;;;20.52;9.35;;;7.20;94.40;;;;;;5089839;28;20024;-55
2022/12/05 02:04:00;;;;;;;19.52;8.23;;;7.20;94.60;;;;;;5106884;28;20449;-55
2022/12/05 02:06:26;;;;;;;21.63;9.27;;;7.20;94.40;;;;;;5090071;28;20038;-55
2022/12/05 02:08:52;;;;;;;18.27;8.90;;;7.20;94.40;;;;;;5125050;28;20031;-55
2022/12/05 02:11:18;;;;;;;20.02;8.82;;;7.20;94.40;;;;;;5106756;28;20043;-55
2022/12/05 02:13:46;;;;;;;17.20;8.43;;;7.20;94.40;;;;;;5089963;28;20076;-55
2022/12/05 02:16:25;;;;;;;19.00;7.88;;;7.20;94.40;;;;;;5125206;28;20047;-55
2022/12/05 02:19:12;;;;;;;19.70;9.43;;;7.20;94.40;;;;;;5107722;28;20030;-55
2022/12/05 02:22:02;;;;;;;17.50;8.85;;;7.20;94.40;;;;;;5124948;28;20077;-55
2022/12/05 02:24:42;;;;;;;19.55;9.40;;;7.20;94.40;;;;;;5125101;28;20053;-54
2022/12/05 02:27:46;;;;;;;17.45;8.25;;;7.20;94.40;;;;;;5107162;28;20107;-55
2022/12/05 02:30:19;;;;;;;19.15;9.32;;;7.20;94.40;;;;;;5125008;28;20139;-54
2022/12/05 02:33:00;;;;;;;15.85;8.50;;;7.20;94.50;;;;;;5106539;28;20131;-55
2022/12/05 02:35:34;;;;;;;14.45;9.07;;;7.20;94.50;;;;;;5128313;28;20075;-55
2022/12/05 02:38:26;;;;;;;18.87;8.97;;;7.20;94.50;;;;;;5093121;28;20034;-55
2022/12/05 02:41:09;;;;;;;18.00;9.30;;;7.20;94.50;;;;;;5110177;28;20321;-55
2022/12/05 02:43:55;;;;;;;13.43;8.45;;;7.20;94.50;;;;;;5128708;28;20066;-55
2022/12/05 02:46:24;;;;;;;18.00;9.27;;;7.20;94.50;;;;;;5095233;28;20048;-55
2022/12/05 02:48:52;;;;;;;14.15;8.23;;;7.20;94.50;;;;;;5093365;28;20040;-55
2022/12/05 02:51:19;;;;;;;17.52;8.93;;;7.20;94.50;;;;;;5093344;28;20050;-55
2022/12/05 02:53:45;;;;;;;18.85;9.27;;;7.20;94.50;;;;;;5093139;28;20118;-55
2022/12/05 02:56:11;;;;;;;17.88;8.88;;;7.20;94.80;;;;;;5092973;28;20092;-55
2022/12/05 02:58:40;;;;;;;16.23;8.18;;;7.20;94.60;;;;;;5093049;28;20030;-55
2022/12/05 03:01:05;;;;;;;13.55;8.25;;;7.20;94.60;;;;;;5093118;28;20042;-54
2022/12/05 03:03:31;;;;;;;13.73;8.02;;;7.20;94.60;;;;;;5093063;28;20020;-55
2022/12/05 03:06:13;;;;;;;17.08;8.75;;;7.10;94.60;;;;;;5092940;28;20392;-54
2022/12/05 03:08:52;;;;;;;15.65;8.90;;;7.20;94.70;;;;;;5093273;28;20385;-55
2022/12/05 03:11:18;;;;;;;18.83;8.45;;;7.20;94.70;;;;;;5093881;28;20042;-54
2022/12/05 03:13:50;;;;;;;13.88;7.50;;;7.20;94.70;;;;;;5128689;28;20047;-54
2022/12/05 03:16:28;;;;;;;17.75;8.05;;;7.20;94.70;;;;;;5093121;28;20039;-54
2022/12/05 03:18:55;;;;;;;16.73;8.55;;;7.20;94.70;;;;;;5110083;28;20030;-54
2022/12/05 03:21:30;;;;;;;19.70;8.70;;;7.20;94.60;;;;;;5109527;28;20031;-54
2022/12/05 03:24:06;;;;;;;13.65;8.35;;;7.20;94.60;;;;;;5127895;28;20040;-54
2022/12/05 03:26:37;;;;;;;20.52;8.85;;;7.20;94.60;;;;;;5093836;28;20148;-55
2022/12/05 03:29:24;;;;;;;14.65;7.90;;;7.20;94.70;;;;;;5109647;28;20027;-55
2022/12/05 03:32:10;;;;;;;12.65;7.60;;;7.20;94.60;;;;;;5109361;28;20032;-54
2022/12/05 03:34:39;;;;;;;11.82;7.70;;;7.20;94.70;;;;;;5127765;28;20023;-55
2022/12/05 03:37:07;;;;;;;13.88;7.35;;;7.20;94.70;;;;;;5127593;28;20032;-54
2022/12/05 03:39:33;;;;;;;14.32;8.02;;;7.20;94.80;;;;;;5092598;28;20030;-55
2022/12/05 03:42:13;;;;;;;15.93;8.02;;;7.30;94.80;;;;;;5092099;28;20087;-54
2022/12/05 03:44:50;;;;;;;15.75;7.50;;;7.30;94.80;;;;;;5093177;28;20020;-55
2022/12/05 03:47:21;;;;;;;19.40;8.07;;;7.30;94.80;;;;;;5109901;28;20031;-54
2022/12/05 03:49:53;;;;;;;14.20;7.90;;;7.20;94.80;;;;;;5076086;28;20057;-55
2022/12/05 03:52:27;;;;;;;12.48;7.53;;;7.30;94.90;;;;;;5091825;28;20039;-54
2022/12/05 03:54:59;;;;;;;11.93;7.65;;;7.30;95.00;;;;;;5092354;28;20032;-55
2022/12/05 03:57:44;;;;;;;12.15;8.50;;;7.30;94.90;;;;;;5075323;28;20059;-54
2022/12/05 04:00:16;;;;;;;17.25;8.77;;;7.30;94.90;;;;;;5092578;28;20054;-54
2022/12/05 04:03:07;;;;;;;13.55;8.52;;;7.30;94.90;;;;;;5092893;28;20078;-54
2022/12/05 04:05:45;;;;;;;12.40;8.70;;;7.30;95.10;;;;;;5076537;28;20023;-55
2022/12/05 04:08:32;;;;;;;15.90;8.70;;;7.30;95.10;;;;;;5092072;28;20083;-55
2022/12/05 04:11:00;;;;;;;13.60;8.52;;;7.30;95.10;;;;;;5091558;28;20027;-55
2022/12/05 04:13:32;;;;;;;15.65;9.07;;;7.30;95.20;;;;;;5108753;28;20077;-54
2022/12/05 04:18:53;;;;;;;13.50;8.13;;;7.30;95.20;;;;;;5097638;28;20097;-54
2022/12/05 04:21:37;;;;;;;13.57;8.52;;;7.30;95.40;;;;;;5092025;28;20043;-55
2022/12/05 04:26:47;;;;;;;10.35;7.68;;;7.30;95.30;;;;;;5096866;28;20039;-55
2022/12/05 04:29:28;;;;;;;14.48;8.10;;;7.30;95.20;;;;;;5091332;28;20019;-55
2022/12/05 04:31:57;;;;;;;15.45;8.80;;;7.30;95.20;;;;;;5092787;28;20036;-54
2022/12/05 04:34:22;;;;;;;13.07;7.82;;;7.30;95.20;;;;;;5091461;28;20030;-54
2022/12/05 04:36:55;;;;;;;11.85;7.53;;;7.30;95.10;;;;;;5091128;28;20103;-54
2022/12/05 04:39:46;;;;;;;13.38;7.97;;;7.30;95.10;;;;;;5074701;28;20034;-54
2022/12/05 04:42:17;;;;;;;12.68;7.43;;;7.30;95.10;;;;;;5091675;28;20035;-55
2022/12/05 04:44:52;;;;;;;12.80;7.97;;;7.30;95.00;;;;;;5107913;28;20024;-54
2022/12/05 04:47:18;;;;;;;11.40;7.85;;;7.30;95.10;;;;;;5074786;28;20036;-55
2022/12/05 04:49:44;;;;;;;17.10;7.38;;;7.30;95.10;;;;;;5108077;28;20028;-54
2022/12/05 04:52:10;;;;;;;11.20;8.10;;;7.40;95.10;;;;;;5090942;28;20040;-55
2022/12/05 04:54:47;;;;;;;12.68;7.93;;;7.30;95.10;;;;;;5090996;28;20031;-54
2022/12/05 04:57:30;;;;;;;12.00;7.75;;;7.40;95.20;;;;;;5125312;28;20036;-54
2022/12/05 04:59:55;;;;;;;11.85;8.30;;;7.30;95.20;;;;;;5090863;28;20027;-55
2022/12/05 05:02:26;;;;;;;11.82;7.55;;;7.30;95.50;;;;;;5090542;28;20046;-54
2022/12/05 05:04:52;;;;;;;11.70;7.80;;;7.30;95.20;;;;;;5091224;28;20465;-55
2022/12/05 05:07:18;;;;;;;24.77;8.70;;;7.30;95.20;;;;;;5107547;28;20028;-54
2022/12/05 05:09:43;;;;;;;19.65;8.52;;;7.30;95.20;;;;;;5090366;28;20019;-54
2022/12/05 05:12:10;;;;;;;15.85;7.78;;;7.30;95.20;;;;;;5090564;28;20036;-54
2022/12/05 05:14:36;;;;;;;15.23;8.45;;;7.30;95.10;;;;;;5125742;28;20100;-55
2022/12/05 05:17:01;;;;;;;23.65;9.07;;;7.40;95.20;;;;;;5107563;28;20481;-54
2022/12/05 05:19:27;;;;;;;18.95;8.80;;;7.30;95.20;;;;;;5090478;28;20095;-55
2022/12/05 05:21:53;;;;;;;16.35;8.60;;;7.40;95.30;;;;;;5107213;28;20035;-55
2022/12/05 05:24:20;;;;;;;21.52;7.88;;;7.40;95.30;;;;;;5090342;28;20083;-55
2022/12/05 05:26:46;;;;;;;13.50;7.80;;;7.40;95.30;;;;;;5125686;28;20024;-55
2022/12/05 05:29:11;;;;;;;18.00;8.15;;;7.30;95.20;;;;;;5125242;28;20026;-55
2022/12/05 05:31:37;;;;;;;12.15;7.07;;;7.40;95.20;;;;;;5107198;28;20036;-55
2022/12/05 05:34:03;;;;;;;25.67;8.25;;;7.40;95.20;;;;;;5125337;28;20112;-55
2022/12/05 05:36:28;;;;;;;17.80;7.72;;;7.30;95.20;;;;;;5125548;28;20039;-55
2022/12/05 05:38:56;;;;;;;13.52;8.15;;;7.40;95.30;;;;;;5090117;28;20298;-55
2022/12/05 05:41:30;;;;;;;25.85;8.73;;;7.40;95.20;;;;;;5107164;28;20033;-54
2022/12/05 05:43:55;;;;;;;26.55;8.52;;;7.40;95.20;;;;;;5107087;28;20054;-55
2022/12/05 05:46:23;;;;;;;15.55;7.85;;;7.40;95.30;;;;;;5106815;28;20040;-55
2022/12/05 05:48:48;;;;;;;14.30;7.97;;;7.40;95.40;;;;;;5106954;28;20024;-54
2022/12/05 05:51:15;;;;;;;17.02;7.18;;;7.40;95.30;;;;;;5073280;28;20125;-54
2022/12/05 05:53:40;;;;;;;13.70;7.07;;;7.40;95.40;;;;;;5090096;28;20031;-55
2022/12/05 05:56:14;;;;;;;14.73;7.75;;;7.40;95.40;;;;;;5106907;28;20035;-55
2022/12/05 05:58:39;;;;;;;15.40;7.25;;;7.40;95.30;;;;;;5106688;28;20075;-55
2022/12/05 06:01:11;;;;;;;18.25;7.75;;;7.40;95.30;;;;;;5124948;28;20028;-55
2022/12/05 06:03:36;;;;;;;17.50;7.75;;;7.40;95.30;;;;;;5106752;28;20031;-55
2022/12/05 06:06:04;;;;;;;17.88;8.38;;;7.40;95.30;;;;;;5089892;28;20028;-55
2022/12/05 06:08:30;;;;;;;15.55;6.90;;;7.40;95.50;;;;;;5108853;28;20079;-55
2022/12/05 06:10:56;;;;;;;14.52;7.57;;;7.40;95.50;;;;;;5094072;28;20027;-55
2022/12/05 06:13:21;;;;;;;13.10;6.43;;;7.40;95.50;;;;;;5093755;28;20024;-55
2022/12/05 06:15:47;;;;;;;18.25;7.38;;;7.40;95.50;;;;;;5110621;28;20121;-55
2022/12/05 06:18:12;;;;;;;10.85;6.90;;;7.40;95.70;;;;;;5129189;28;20016;-55
2022/12/05 06:20:38;;;;;;;12.95;7.47;;;7.40;95.70;;;;;;5129015;28;20035;-55
2022/12/05 06:23:03;;;;;;;11.68;7.22;;;7.40;95.60;;;;;;5110532;28;20027;-55
2022/12/05 06:25:29;;;;;;;20.08;7.15;;;7.40;95.60;;;;;;5076711;28;20039;-55
2022/12/05 06:27:54;;;;;;;14.38;7.65;;;7.40;95.60;;;;;;5110551;28;20023;-55
2022/12/05 06:30:20;;;;;;;12.30;7.03;;;7.40;95.60;;;;;;5076571;28;20034;-55
2022/12/05 06:32:46;;;;;;;13.90;7.50;;;7.40;95.70;;;;;;5093491;28;20080;-55
2022/12/05 06:35:14;;;;;;;15.10;7.20;;;7.40;95.70;;;;;;5128534;28;20083;-55
2022/12/05 06:37:44;;;;;;;16.98;7.10;;;7.40;95.80;;;;;;5094116;28;20523;-55
2022/12/05 06:40:10;;;;;;;18.23;7.18;;;7.40;95.80;;;;;;5128532;28;20027;-54
2022/12/05 06:42:36;;;;;;;15.18;6.90;;;7.40;95.80;;;;;;5093054;28;20043;-55
2022/12/05 06:45:02;;;;;;;13.85;6.85;;;7.40;95.80;;;;;;5093122;28;20016;-55
2022/12/05 06:47:27;;;;;;;14.88;7.03;;;7.40;95.80;;;;;;5110498;28;20042;-55
2022/12/05 06:49:53;;;;;;;13.60;7.07;;;7.40;95.90;;;;;;5093176;28;20024;-55
2022/12/05 06:52:18;;;;;;;13.50;6.35;;;7.40;95.90;;;;;;5128506;28;20031;-54
2022/12/05 06:54:45;;;;;;;15.70;6.63;;;7.40;95.90;;;;;;5110165;28;20023;-54
2022/12/05 06:57:11;;;;;;;13.18;6.90;;;7.40;95.90;;;;;;5128494;28;20027;-55
2022/12/05 06:59:36;;;;;;;11.10;6.50;;;7.40;95.90;;;;;;5109702;28;20040;-55
2022/12/05 07:02:02;;;;;;;10.90;6.57;;;7.40;95.90;;;;;;5109813;28;20028;-54
2022/12/05 07:04:28;;;;;;;11.60;6.60;;;7.40;95.80;;;;;;5128163;28;20023;-55
2022/12/05 07:06:54;;;;;;;8.25;6.25;;;7.40;95.80;;;;;;5127988;28;20035;-55
2022/12/05 07:09:21;;;;;;;11.73;5.65;;;7.40;95.80;;;;;;5092662;28;20115;-55
2022/12/05 07:11:48;;;;;;;11.07;5.53;;;7.40;95.70;;;;;;5128238;28;20122;-54
2022/12/05 07:14:13;;;;;;;9.10;5.65;;;7.40;95.70;;;;;;5109673;28;20418;-55
2022/12/05 07:16:39;;;;;;;10.65;5.57;;;7.40;95.70;;;;;;5092806;28;20111;-54
2022/12/05 07:19:04;;;;;;;8.48;5.63;;;7.50;95.80;;;;;;5108647;28;20023;-54
2022/12/05 07:21:30;;;;;;;7.78;5.07;;;7.40;95.70;;;;;;5092324;28;20076;-55
2022/12/05 07:23:55;;;;;;;10.98;5.78;;;7.40;95.70;;;;;;5109696;28;20054;-55
2022/12/05 07:26:22;;;;;;;12.50;5.32;;;7.50;95.80;;;;;;5127789;28;20031;-55
2022/12/05 07:28:48;;;;;;;15.50;5.95;;;7.50;95.80;;;;;;5109418;28;20028;-55
2022/12/05 07:31:16;;;;;;;7.65;5.43;;;7.50;95.70;;;;;;5075564;28;20369;-55
2022/12/05 07:33:41;;;;;;;11.60;5.85;;;7.50;95.70;;;;;;5109332;28;20027;-55
2022/12/05 07:36:12;;;;;;;8.60;5.40;;;7.50;95.70;;;;;;5109188;28;20039;-55
2022/12/05 07:38:38;;;;;;;11.00;5.57;;;7.50;95.80;;;;;;5092810;28;20560;-55
2022/12/05 07:41:05;;;;;;;15.15;5.97;;;7.50;95.80;;;;;;5091916;28;20040;-55
2022/12/05 07:43:30;;;;;;;15.20;6.07;;;7.50;95.80;;;;;;5127475;28;20479;-55
2022/12/05 07:46:03;;;;;;;16.55;5.47;;;7.50;95.80;;;;;;5091940;28;20067;-55
2022/12/05 07:48:29;;;;;;;18.67;6.50;;;7.50;95.80;;;;;;5127615;28;20358;-55
2022/12/05 07:51:01;;;;;;;14.60;5.82;;;7.50;95.90;;;;;;5108883;28;20110;-55
2022/12/05 07:53:27;;;;;;;16.23;6.18;;;7.60;95.90;;;;;;5108764;28;20047;-55
2022/12/05 07:55:53;;;;;;;19.65;6.72;;;7.60;95.90;;;;;;5108670;28;20020;-55
2022/12/05 07:58:18;;;;;;;16.77;5.55;;;7.60;95.90;;;;;;5115227;28;20027;-55
2022/12/05 08:00:44;;;;;;;12.85;5.65;;;7.60;95.90;;;;;;5097254;28;20034;-54
2022/12/05 08:03:09;;;;;;;23.40;6.07;;;7.60;95.90;;;;;;5108795;28;20031;-55
2022/12/05 08:05:36;;;;;;;22.80;6.70;;;7.60;95.90;;;;;;5107529;28;20114;-55
2022/12/05 08:08:01;;;;;;;22.52;5.85;;;7.60;95.90;;;;;;5105974;28;20350;-55
2022/12/05 08:10:27;;;;;;;31.60;7.20;;;7.70;96.00;;;;;;5104652;28;20026;-55
2022/12/05 08:12:53;;;;;;;33.25;6.68;;;7.60;96.00;;;;;;5087900;28;20035;-55
2022/12/05 08:15:18;;;;;;;32.88;7.63;;;7.70;96.00;;;;;;5106028;28;20092;-55
2022/12/05 08:17:44;;;;;;;27.88;6.90;;;7.70;96.10;;;;;;5105978;28;20077;-55
2022/12/05 08:20:10;;;;;;;25.50;7.00;;;7.60;96.00;;;;;;5087643;28;20028;-55
2022/12/05 08:22:35;;;;;;;30.67;6.95;;;7.70;96.10;;;;;;5087585;28;20054;-55
2022/12/05 08:25:01;;;;;;;33.20;7.13;;;7.70;96.40;;;;;;5087729;28;20016;-55
2022/12/05 08:27:26;;;;;;;27.63;7.45;;;7.70;96.10;;;;;;5071858;28;20140;-55
2022/12/05 08:29:53;;;;;;;27.40;6.78;;;7.70;96.10;;;;;;5097774;28;20019;-55
2022/12/05 08:32:18;;;;;;;41.70;7.82;;;7.70;96.00;;;;;;5107523;28;20055;-55
2022/12/05 08:34:44;;;;;;;26.13;7.32;;;7.70;96.10;;;;;;5106324;28;20361;-55
2022/12/05 08:37:10;;;;;;;31.23;7.40;;;7.70;96.40;;;;;;5125638;28;20366;-55
2022/12/05 08:39:35;;;;;;;25.25;6.90;;;7.80;96.10;;;;;;5126341;28;20488;-55
2022/12/05 08:42:01;;;;;;;37.45;7.40;;;7.80;96.20;;;;;;5107608;28;20035;-55
2022/12/05 08:44:26;;;;;;;34.22;7.68;;;7.80;96.20;;;;;;5126159;28;20357;-55
2022/12/05 08:46:52;;;;;;;18.85;6.50;;;7.80;96.20;;;;;;5107571;28;20168;-55
2022/12/05 08:49:17;;;;;;;26.70;7.22;;;7.80;96.20;;;;;;5107833;28;20020;-54
2022/12/05 08:51:43;;;;;;;30.00;8.05;;;7.80;96.10;;;;;;5107857;28;20043;-55
2022/12/05 08:54:09;;;;;;;27.58;7.03;;;7.80;96.20;;;;;;5107679;28;20027;-55
2022/12/05 08:56:34;;;;;;;26.88;6.57;;;7.80;96.20;;;;;;5107479;28;20043;-55
2022/12/05 08:59:03;;;;;;;25.13;6.35;;;7.80;96.20;;;;;;5125880;28;20104;-55
2022/12/05 09:01:32;;;;;;;44.30;7.25;;;7.80;96.10;;;;;;5107806;28;20099;-55
2022/12/05 09:03:59;;;;;;;23.15;6.50;;;7.80;96.20;;;;;;5108090;28;20035;-55
2022/12/05 09:06:25;;;;;;;21.13;5.80;;;7.80;96.30;;;;;;5107314;28;20411;-55
2022/12/05 09:08:55;;;;;;;28.90;5.70;;;7.80;96.10;;;;;;5090364;28;20020;-55
2022/12/05 09:11:22;;;;;;;22.23;5.18;;;7.90;96.00;;;;;;5107041;28;20043;-55
2022/12/05 09:13:48;;;;;;;30.58;6.57;;;7.90;96.00;;;;;;5107394;28;20038;-55
2022/12/05 09:16:15;;;;;;;33.60;6.72;;;7.90;96.10;;;;;;5107221;28;20036;-55
2022/12/05 09:18:41;;;;;;;36.50;6.28;;;7.90;96.10;;;;;;5107687;28;20051;-55
2022/12/05 09:21:15;;;;;;;43.63;6.38;;;7.90;96.20;;;;;;5107658;28;20059;-55
2022/12/05 09:23:41;;;;;;;36.17;6.78;;;8.00;96.30;;;;;;5107904;28;20024;-55
2022/12/05 09:26:08;;;;;;;53.88;6.97;;;8.00;96.30;;;;;;5107864;28;20038;-55
2022/12/05 09:28:34;;;;;;;28.85;6.05;;;8.00;96.40;;;;;;5089994;28;20465;-55
2022/12/05 09:31:04;;;;;;;36.42;6.93;;;8.00;96.40;;;;;;5125583;28;20096;-55
2022/12/05 09:33:30;;;;;;;25.92;6.10;;;8.00;96.30;;;;;;5107481;28;20015;-55
2022/12/05 09:35:56;;;;;;;30.95;7.07;;;8.00;96.30;;;;;;5090601;28;20027;-55
2022/12/05 09:38:21;;;;;;;25.50;6.20;;;8.00;96.20;;;;;;5125772;28;20019;-54
2022/12/05 09:40:50;;;;;;;27.67;5.68;;;8.10;96.20;;;;;;5107323;28;20039;-55
2022/12/05 09:43:42;;;;;;;32.13;6.20;;;8.00;96.20;;;;;;5073600;27;20477;-55
2022/12/05 09:46:34;;;;;;;33.83;7.25;;;8.20;96.20;;;;;;5114386;28;20027;-55
2022/12/05 09:48:59;;;;;;;54.38;6.25;;;8.10;96.30;;;;;;5100989;28;20032;-55
2022/12/05 09:51:25;;;;;;;36.83;7.10;;;8.10;96.40;;;;;;5087363;28;20093;-55
2022/12/05 09:53:50;;;;;;;30.67;6.43;;;8.10;96.40;;;;;;5119043;28;20031;-54
2022/12/05 09:56:28;;;;;;;60.20;8.27;;;8.10;96.40;;;;;;5089535;28;20081;-55
2022/12/05 09:58:55;;;;;;;56.85;7.60;;;8.20;96.50;;;;;;5119518;28;20028;-55
2022/12/05 10:01:40;;;;;;;45.25;6.90;;;8.20;96.30;;;;;;5106505;28;20038;-55
2022/12/05 10:04:34;;;;;;;50.30;7.47;;;8.20;96.40;;;;;;5107059;28;20046;-55
2022/12/05 10:07:36;;;;;;;45.30;7.85;;;8.20;96.30;;;;;;5125042;28;20036;-55
2022/12/05 10:10:04;;;;;;;41.45;6.88;;;8.20;96.30;;;;;;5103315;28;20109;-55
2022/12/05 10:13:00;;;;;;;44.90;7.32;;;8.20;96.30;;;;;;5104793;28;20032;-55
2022/12/05 10:15:37;;;;;;;43.10;7.35;;;8.30;96.40;;;;;;5104670;28;20035;-55
2022/12/05 10:18:10;;;;;;;45.58;7.25;;;8.30;96.60;;;;;;5104727;28;20032;-54
2022/12/05 10:20:47;;;;;;;131.68;14.45;;;8.30;96.30;;;;;;5103038;28;20040;-55
2022/12/05 10:23:22;;;;;;;131.25;14.60;;;8.30;96.40;;;;;;5101529;28;20048;-55
2022/12/05 10:25:48;;;;;;;90.05;10.75;;;8.30;96.30;;;;;;5102717;28;20132;-55
2022/12/05 10:28:17;;;;;;;85.30;9.45;;;8.40;96.30;;;;;;5102976;28;20051;-54
2022/12/05 10:30:43;;;;;;;61.42;9.20;;;8.40;96.40;;;;;;5102708;28;20036;-54
2022/12/05 10:33:17;;;;;;;55.53;9.75;;;8.40;96.40;;;;;;5103018;28;20092;-55
2022/12/05 10:35:43;;;;;;;62.28;9.25;;;8.40;96.40;;;;;;5102688;28;20052;-55
2022/12/05 10:38:13;;;;;;;80.55;10.05;;;8.40;96.40;;;;;;5119134;28;20035;-54
2022/12/05 10:40:48;;;;;;;68.85;9.90;;;8.40;96.40;;;;;;5087199;28;20139;-54
2022/12/05 10:43:15;;;;;;;94.72;13.05;;;8.50;96.40;;;;;;5070916;28;20525;-55
2022/12/05 10:45:45;;;;;;;63.20;10.23;;;8.50;96.40;;;;;;5087644;28;20036;-54
2022/12/05 10:48:11;;;;;;;72.25;11.10;;;8.50;96.30;;;;;;5087549;28;20028;-55
2022/12/05 10:50:37;;;;;;;78.65;11.95;;;8.60;96.30;;;;;;5115336;28;20083;-54
2022/12/05 10:53:04;;;;;;;165.35;18.70;;;8.60;96.30;;;;;;5089480;28;20043;-55
2022/12/05 10:55:35;;;;;;;225.25;27.13;;;8.60;96.30;;;;;;5091246;28;20031;-55
2022/12/05 10:58:22;;;;;;;261.85;31.10;;;8.60;96.40;;;;;;5093419;28;20115;-55
2022/12/05 11:00:50;;;;;;;127.47;15.95;;;8.60;96.40;;;;;;5109284;28;20062;-55
2022/12/05 11:03:36;;;;;;;128.43;15.07;;;8.70;96.50;;;;;;5092799;28;20107;-55
2022/12/05 11:06:16;;;;;;;186.13;22.13;;;8.70;96.60;;;;;;5109660;28;20043;-55
2022/12/05 11:08:42;;;;;;;96.10;14.20;;;8.70;96.60;;;;;;5094405;28;20024;-54
2022/12/05 11:11:21;;;;;;;281.63;28.77;;;8.70;96.50;;;;;;5092093;28;20106;-54
2022/12/05 11:13:57;;;;;;;268.45;27.90;;;8.70;96.50;;;;;;5109893;28;20027;-55
2022/12/05 11:16:32;;;;;;;141.65;20.35;;;8.70;96.60;;;;;;5109031;28;20040;-54
2022/12/05 11:19:32;;;;;;;148.60;19.30;;;8.70;96.60;;;;;;5109191;28;20031;-55
2022/12/05 11:21:58;;;;;;;113.57;16.30;;;8.80;96.60;;;;;;5108711;28;20118;-55
2022/12/05 11:24:37;;;;;;;137.15;18.40;;;8.80;96.50;;;;;;5125904;28;20031;-55
2022/12/05 11:27:15;;;;;;;235.07;26.63;;;8.80;96.40;;;;;;5092159;28;20032;-58
2022/12/05 11:29:40;;;;;;;194.60;21.15;;;8.90;96.40;;;;;;5127456;28;20023;-57
2022/12/05 11:32:17;;;;;;;141.90;18.70;;;8.90;96.30;;;;;;5127282;28;20031;-58
2022/12/05 11:34:49;;;;;;;171.55;19.98;;;8.90;96.20;;;;;;5107931;28;20032;-57
2022/12/05 11:37:23;;;;;;;132.55;15.80;;;8.90;96.20;;;;;;5088562;28;20096;-57
2022/12/05 11:39:49;;;;;;;179.02;22.83;;;9.00;96.10;;;;;;5089748;28;20465;-58
2022/12/05 11:43:06;;;;;;;133.90;17.65;;;9.00;96.10;;;;;;5071731;28;20039;-57
2022/12/05 11:45:44;;;;;;;275.45;29.92;;;9.00;96.20;;;;;;5071973;28;20032;-58
2022/12/05 11:48:19;;;;;;;156.70;18.40;;;9.00;96.30;;;;;;5103451;28;20039;-58
2022/12/05 11:51:05;;;;;;;269.55;31.02;;;9.00;96.30;;;;;;5105055;28;20029;-57
2022/12/05 11:53:35;;;;;;;195.73;21.08;;;9.00;96.30;;;;;;5104006;28;20626;-59
2022/12/05 11:56:33;;;;;;;146.38;18.45;;;9.00;96.40;;;;;;5105060;28;20036;-57
2022/12/05 11:59:20;;;;;;;148.70;19.33;;;9.10;96.40;;;;;;5105193;28;20024;-57
2022/12/05 12:01:50;;;;;;;172.23;19.65;;;9.10;96.40;;;;;;5106416;28;20045;-57
2022/12/05 12:04:34;;;;;;;141.15;20.30;;;9.10;96.30;;;;;;5106255;28;20024;-57
2022/12/05 12:07:31;;;;;;;191.80;22.15;;;9.10;96.30;;;;;;5105765;28;20032;-58
2022/12/05 12:10:08;;;;;;;;;;;9.10;96.20;;;;;;5088051;28;20129;-57
2022/12/05 12:12:47;;;;;;;270.20;28.63;;;9.20;96.30;;;;;;5106052;28;19946;-58
2022/12/05 12:15:35;;;;;;;157.10;18.58;;;9.20;96.20;;;;;;5104722;28;20043;-57
2022/12/05 12:18:34;;;;;;;152.38;18.40;;;9.20;96.50;;;;;;5106189;28;20107;-57
2022/12/05 12:21:23;;;;;;;208.55;22.95;;;9.20;96.10;;;;;;5087465;28;20042;-57
2022/12/05 12:23:57;;;;;;;147.20;17.65;;;9.20;96.00;;;;;;5105878;28;20016;-59
2022/12/05 12:26:35;;;;;;;142.07;17.58;;;9.20;96.00;;;;;;5106153;28;20124;-59
2022/12/05 12:29:10;;;;;;;154.93;17.70;;;9.30;96.10;;;;;;5087753;28;20022;-57
2022/12/05 12:31:53;;;;;;;168.07;21.17;;;9.30;96.00;;;;;;5086624;28;20036;-58
2022/12/05 12:34:30;;;;;;;148.57;18.70;;;9.30;96.00;;;;;;5085784;28;20024;-57
2022/12/05 12:37:23;;;;;;;140.18;19.27;;;9.30;96.00;;;;;;5106022;28;20032;-57
2022/12/05 12:39:55;;;;;;;157.25;20.67;;;9.40;96.00;;;;;;5102827;28;20039;-57
2022/12/05 12:42:26;;;;;;;145.38;17.83;;;9.40;96.00;;;;;;5104287;28;20036;-57
2022/12/05 12:45:01;;;;;;;127.13;17.33;;;9.40;95.90;;;;;;5104355;28;20047;-58
2022/12/05 12:47:38;;;;;;;146.10;18.33;;;9.40;95.90;;;;;;5105394;28;20038;-58
2022/12/05 12:50:19;;;;;;;132.70;16.55;;;9.40;95.90;;;;;;5104223;28;20028;-57
2022/12/05 12:52:53;;;;;;;126.88;15.85;;;9.40;95.90;;;;;;5103183;28;20044;-57
2022/12/05 12:55:23;;;;;;;103.00;14.10;;;9.40;96.00;;;;;;5105483;28;20024;-57
2022/12/05 12:58:10;;;;;;;115.25;16.58;;;9.40;95.90;;;;;;5086735;28;20031;-58
2022/12/05 13:00:48;;;;;;;83.10;13.10;;;9.40;95.90;;;;;;5105656;28;20036;-57
2022/12/05 13:03:24;;;;;;;296.77;27.90;;;9.50;96.00;;;;;;5104046;28;20081;-57
2022/12/05 13:05:54;;;;;;;231.45;25.58;;;9.50;96.00;;;;;;5105505;28;20351;-56
2022/12/05 13:08:36;;;;;;;192.00;22.25;;;9.50;95.90;;;;;;5103965;28;20106;-57